createdAt,value
2019-03-09T00:01:46.648Z,7.54
2019-03-09T00:04:14.301Z,7.57
2019-03-09T00:06:41.829Z,7.44
2019-03-09T00:09:09.580Z,7.54
2019-03-09T00:11:37.685Z,7.59
2019-03-09T00:14:05.344Z,7.65
2019-03-09T00:16:33.355Z,7.52
2019-03-09T00:19:01.052Z,7.51
2019-03-09T00:21:28.742Z,7.53
2019-03-09T00:24:15.911Z,7.63
2019-03-09T00:26:51.789Z,7.50
2019-03-09T00:29:23.465Z,7.67
2019-03-09T00:31:54.572Z,7.64
2019-03-09T00:34:23.194Z,7.55
2019-03-09T00:36:50.800Z,7.48
2019-03-09T00:39:18.419Z,7.39
2019-03-09T00:41:45.987Z,7.00
2019-03-09T00:44:13.591Z,6.74
2019-03-09T00:46:41.202Z,6.78
2019-03-09T00:49:08.809Z,6.85
2019-03-09T00:51:36.369Z,6.89
2019-03-09T00:54:04.174Z,6.99
2019-03-09T00:56:31.738Z,7.10
2019-03-09T00:58:59.345Z,7.02
2019-03-09T01:01:26.897Z,7.29
2019-03-09T01:03:54.544Z,7.35
2019-03-09T01:06:22.080Z,7.17
2019-03-09T01:08:49.728Z,7.15
2019-03-09T01:11:17.278Z,7.19
2019-03-09T01:13:44.860Z,7.34
2019-03-09T01:16:12.389Z,7.27
2019-03-09T01:18:39.937Z,7.37
2019-03-09T01:21:07.510Z,7.38
2019-03-09T01:23:35.079Z,7.21
2019-03-09T01:26:02.656Z,7.11
2019-03-09T01:28:30.232Z,7.25
2019-03-09T01:30:58.906Z,7.20
2019-03-09T01:33:26.453Z,7.13
2019-03-09T01:35:54.168Z,7.13
2019-03-09T01:38:22.250Z,7.20
2019-03-09T01:40:49.868Z,7.17
2019-03-09T01:43:17.406Z,7.36
2019-03-09T01:45:45.009Z,7.37
2019-03-09T01:48:12.566Z,7.22
2019-03-09T01:50:40.145Z,7.20
2019-03-09T01:53:07.673Z,7.38
2019-03-09T01:55:35.298Z,7.50
2019-03-09T01:58:03.213Z,7.27
2019-03-09T02:00:30.879Z,7.09
2019-03-09T02:03:00.245Z,6.79
2019-03-09T02:05:27.829Z,6.82
2019-03-09T02:07:55.443Z,6.89
2019-03-09T02:10:23.052Z,6.99
2019-03-09T02:12:50.774Z,6.94
2019-03-09T02:15:18.471Z,6.80
2019-03-09T02:17:46.148Z,7.05
2019-03-09T02:20:13.903Z,7.14
2019-03-09T02:22:41.734Z,7.15
2019-03-09T02:25:09.914Z,7.17
2019-03-09T02:27:38.498Z,7.14
2019-03-09T02:30:06.363Z,7.06
2019-03-09T02:32:34.986Z,7.05
2019-03-09T02:35:04.853Z,7.15
2019-03-09T02:37:32.525Z,7.09
2019-03-09T02:40:03.473Z,7.03
2019-03-09T02:42:31.529Z,7.13
2019-03-09T02:44:59.181Z,7.05
2019-03-09T02:47:26.968Z,7.14
2019-03-09T02:49:54.593Z,7.15
2019-03-09T02:52:22.137Z,7.08
2019-03-09T02:54:49.753Z,7.03
2019-03-09T02:57:17.298Z,6.99
2019-03-09T02:59:44.874Z,7.04
2019-03-09T03:02:38.087Z,7.11
2019-03-09T03:05:06.130Z,7.14
2019-03-09T03:07:33.662Z,7.13
2019-03-09T03:10:01.359Z,7.18
2019-03-09T03:12:30.728Z,7.15
2019-03-09T03:14:58.507Z,7.08
2019-03-09T03:17:26.151Z,6.99
2019-03-09T03:19:53.805Z,7.01
2019-03-09T03:22:21.447Z,6.93
2019-03-09T03:24:49.033Z,7.02
2019-03-09T03:27:16.624Z,7.08
2019-03-09T03:29:44.150Z,7.07
2019-03-09T03:32:11.788Z,6.96
2019-03-09T03:34:39.349Z,7.00
2019-03-09T03:37:06.956Z,7.03
2019-03-09T03:39:34.477Z,6.87
2019-03-09T03:42:02.122Z,6.97
2019-03-09T03:44:29.629Z,6.99
2019-03-09T03:46:57.234Z,7.10
2019-03-09T03:49:25.322Z,7.06
2019-03-09T03:51:53.275Z,6.88
2019-03-09T03:54:21.845Z,6.92
2019-03-09T03:56:49.499Z,6.86
2019-03-09T03:59:17.105Z,6.90
2019-03-09T04:01:44.868Z,6.84
2019-03-09T04:04:12.431Z,6.79
2019-03-09T04:06:40.434Z,6.75
2019-03-09T04:09:08.081Z,6.67
2019-03-09T04:11:35.949Z,6.77
2019-03-09T04:14:04.788Z,6.70
2019-03-09T04:16:34.057Z,6.63
2019-03-09T04:19:01.737Z,6.65
2019-03-09T04:21:29.662Z,6.66
2019-03-09T04:23:57.393Z,6.50
2019-03-09T04:26:25.015Z,6.57
2019-03-09T04:28:52.708Z,6.65
2019-03-09T04:31:20.473Z,6.60
2019-03-09T04:33:48.101Z,6.67
2019-03-09T04:36:15.922Z,6.61
2019-03-09T04:38:43.661Z,6.63
2019-03-09T04:41:11.402Z,6.47
2019-03-09T04:43:39.212Z,6.55
2019-03-09T04:46:06.748Z,6.64
2019-03-09T04:48:34.322Z,6.69
2019-03-09T04:51:01.866Z,6.77
2019-03-09T04:53:29.471Z,6.84
2019-03-09T04:55:57.012Z,6.89
2019-03-09T04:58:24.605Z,7.02
2019-03-09T05:00:53.187Z,6.95
2019-03-09T05:03:21.679Z,6.81
2019-03-09T05:05:49.353Z,6.78
2019-03-09T05:08:28.516Z,6.78
2019-03-09T05:11:15.275Z,6.81
2019-03-09T05:14:10.449Z,6.86
2019-03-09T05:16:37.980Z,6.79
2019-03-09T05:19:07.253Z,6.81
2019-03-09T05:21:34.880Z,6.79
2019-03-09T05:24:02.488Z,6.72
2019-03-09T05:26:30.099Z,6.72
2019-03-09T05:28:58.713Z,6.74
2019-03-09T05:31:26.356Z,6.72
2019-03-09T05:33:55.673Z,6.79
2019-03-09T05:36:23.309Z,6.82
2019-03-09T05:38:52.643Z,6.88
2019-03-09T05:41:20.350Z,6.86
2019-03-09T05:43:47.979Z,6.77
2019-03-09T05:46:15.597Z,6.84
2019-03-09T05:48:44.794Z,6.78
2019-03-09T05:51:12.425Z,6.56
2019-03-09T05:53:40.133Z,6.72
2019-03-09T05:56:07.974Z,6.74
2019-03-09T05:58:35.629Z,6.75
2019-03-09T06:01:03.411Z,6.92
2019-03-09T06:03:31.100Z,6.90
2019-03-09T06:06:15.712Z,6.92
2019-03-09T06:08:43.653Z,6.94
2019-03-09T06:11:11.398Z,6.90
2019-03-09T06:13:39.060Z,6.88
2019-03-09T06:16:07.826Z,6.80
2019-03-09T06:18:35.565Z,6.75
2019-03-09T06:21:03.294Z,6.79
2019-03-09T06:23:31.105Z,6.80
2019-03-09T06:25:58.812Z,6.83
2019-03-09T06:28:26.537Z,6.77
2019-03-09T06:30:54.187Z,6.70
2019-03-09T06:33:29.642Z,6.76
2019-03-09T06:36:04.596Z,6.75
2019-03-09T06:38:36.712Z,6.74
2019-03-09T06:41:06.753Z,6.80
2019-03-09T06:43:34.351Z,6.85
2019-03-09T06:46:02.014Z,7.08
2019-03-09T06:48:29.618Z,7.27
2019-03-09T06:50:57.744Z,7.47
2019-03-09T06:53:25.396Z,7.70
2019-03-09T06:55:52.985Z,7.72
2019-03-09T06:58:20.720Z,7.83
2019-03-09T07:00:48.399Z,7.81
2019-03-09T07:03:16.044Z,7.98
2019-03-09T07:05:43.763Z,8.09
2019-03-09T07:08:11.457Z,8.20
2019-03-09T07:10:39.218Z,8.35
2019-03-09T07:13:06.869Z,8.42
2019-03-09T07:15:39.437Z,8.38
2019-03-09T07:18:12.184Z,8.40
2019-03-09T07:20:39.881Z,8.47
2019-03-09T07:23:07.629Z,8.44
2019-03-09T07:25:35.313Z,8.62
2019-03-09T07:28:07.853Z,8.70
2019-03-09T07:30:35.526Z,8.78
2019-03-09T07:33:04.749Z,8.71
2019-03-09T07:35:32.471Z,8.66
2019-03-09T07:38:00.110Z,8.67
2019-03-09T07:40:27.724Z,8.79
2019-03-09T07:42:55.363Z,8.80
2019-03-09T07:45:22.877Z,8.83
2019-03-09T07:47:50.443Z,8.69
2019-03-09T07:50:18.068Z,8.85
2019-03-09T07:52:45.813Z,8.94
2019-03-09T07:55:13.724Z,8.85
2019-03-09T07:57:41.354Z,8.83
2019-03-09T08:00:11.493Z,8.97
2019-03-09T08:02:39.195Z,8.95
2019-03-09T08:05:06.827Z,9.06
2019-03-09T08:07:34.444Z,9.02
2019-03-09T08:10:02.048Z,9.08
2019-03-09T08:12:29.779Z,9.47
2019-03-09T08:14:57.416Z,9.74
2019-03-09T08:17:25.040Z,9.88
2019-03-09T08:19:53.748Z,9.93
2019-03-09T08:22:21.403Z,9.97
2019-03-09T08:24:50.084Z,10.10
2019-03-09T08:27:17.636Z,10.16
2019-03-09T08:29:45.269Z,10.24
2019-03-09T08:32:12.939Z,10.29
2019-03-09T08:34:40.632Z,10.37
2019-03-09T08:37:08.217Z,10.70
2019-03-09T08:39:35.863Z,10.96
2019-03-09T08:42:05.277Z,11.12
2019-03-09T08:44:32.838Z,11.44
2019-03-09T08:47:00.487Z,11.85
2019-03-09T08:49:28.229Z,12.15
2019-03-09T08:51:55.878Z,12.41
2019-03-09T08:54:23.448Z,12.79
2019-03-09T08:56:51.220Z,13.04
2019-03-09T08:59:18.793Z,13.15
2019-03-09T09:01:46.492Z,13.28
2019-03-09T09:04:14.030Z,13.39
2019-03-09T09:06:41.789Z,13.44
2019-03-09T09:09:09.356Z,13.59
2019-03-09T09:11:37.228Z,13.59
2019-03-09T09:14:04.817Z,13.80
2019-03-09T09:16:32.488Z,13.98
2019-03-09T09:19:00.072Z,14.15
2019-03-09T09:21:27.754Z,14.19
2019-03-09T09:23:56.553Z,14.42
2019-03-09T09:26:24.169Z,14.58
2019-03-09T09:28:51.799Z,14.71
2019-03-09T09:31:19.368Z,14.59
2019-03-09T09:33:46.962Z,14.64
2019-03-09T09:36:14.516Z,14.49
2019-03-09T09:38:42.203Z,14.53
2019-03-09T09:41:09.743Z,14.35
2019-03-09T09:43:37.419Z,14.47
2019-03-09T09:46:04.932Z,14.59
2019-03-09T09:48:34.388Z,14.54
2019-03-09T09:51:02.056Z,14.17
2019-03-09T09:53:30.007Z,14.28
2019-03-09T09:55:57.674Z,14.17
2019-03-09T09:58:25.393Z,14.47
2019-03-09T10:00:53.062Z,14.60
2019-03-09T10:03:20.714Z,14.45
2019-03-09T10:05:48.420Z,14.29
2019-03-09T10:08:16.147Z,14.31
2019-03-09T10:10:43.794Z,14.65
2019-03-09T10:13:11.508Z,14.69
2019-03-09T10:15:39.574Z,14.66
2019-03-09T10:18:07.512Z,14.75
2019-03-09T10:20:35.191Z,14.83
2019-03-09T10:23:04.800Z,14.72
2019-03-09T10:25:32.567Z,15.02
2019-03-09T10:28:00.297Z,15.09
2019-03-09T10:30:27.998Z,15.48
2019-03-09T10:32:57.149Z,15.51
2019-03-09T10:35:24.814Z,15.65
2019-03-09T10:37:52.474Z,15.82
2019-03-09T10:40:20.158Z,16.02
2019-03-09T10:42:47.819Z,16.41
2019-03-09T10:45:15.643Z,16.67
2019-03-09T10:47:43.381Z,16.62
2019-03-09T10:50:11.727Z,16.93
2019-03-09T10:52:40.467Z,17.14
2019-03-09T10:55:10.176Z,16.93
2019-03-09T10:57:38.881Z,17.15
2019-03-09T11:00:13.349Z,17.26
2019-03-09T11:02:41.083Z,17.71
2019-03-09T11:05:09.603Z,17.79
2019-03-09T11:07:37.339Z,17.54
2019-03-09T11:10:05.390Z,16.95
2019-03-09T11:12:32.988Z,17.09
2019-03-09T11:15:00.684Z,17.28
2019-03-09T11:17:28.341Z,17.60
2019-03-09T11:19:56.064Z,17.46
2019-03-09T11:22:23.758Z,17.84
2019-03-09T11:24:51.378Z,18.14
2019-03-09T11:27:19.035Z,18.06
2019-03-09T11:29:46.676Z,18.42
2019-03-09T11:32:14.406Z,18.56
2019-03-09T11:34:42.090Z,18.39
2019-03-09T11:37:09.677Z,18.21
2019-03-09T11:39:39.051Z,18.06
2019-03-09T11:42:06.575Z,17.88
2019-03-09T11:44:34.227Z,17.68
2019-03-09T11:47:01.791Z,17.50
2019-03-09T11:49:29.426Z,17.53
2019-03-09T11:51:57.020Z,17.62
2019-03-09T11:54:24.614Z,17.77
2019-03-09T11:56:52.177Z,18.03
2019-03-09T11:59:19.792Z,18.03
2019-03-09T12:01:47.381Z,18.01
2019-03-09T12:04:15.379Z,18.04
2019-03-09T12:06:42.965Z,18.25
2019-03-09T12:09:10.599Z,18.36
2019-03-09T12:11:38.288Z,18.54
2019-03-09T12:14:05.917Z,18.67
2019-03-09T12:16:33.500Z,18.96
2019-03-09T12:19:01.222Z,19.38
2019-03-09T12:21:28.772Z,19.56
2019-03-09T12:23:56.405Z,19.72
2019-03-09T12:26:24.940Z,19.89
2019-03-09T12:28:52.640Z,19.83
2019-03-09T12:31:20.159Z,19.94
2019-03-09T12:33:47.803Z,19.98
2019-03-09T12:36:15.378Z,19.88
2019-03-09T12:38:43.048Z,19.92
2019-03-09T12:41:10.608Z,20.07
2019-03-09T12:43:38.177Z,19.26
2019-03-09T12:46:05.735Z,18.98
2019-03-09T12:48:33.267Z,18.94
2019-03-09T12:51:00.791Z,18.83
2019-03-09T12:53:28.467Z,18.53
2019-03-09T12:55:56.036Z,18.86
2019-03-09T12:58:23.697Z,18.89
2019-03-09T13:00:51.322Z,19.25
2019-03-09T13:03:19.100Z,19.24
2019-03-09T13:05:46.970Z,19.25
2019-03-09T13:08:14.672Z,19.07
2019-03-09T13:10:42.290Z,19.05
2019-03-09T13:13:09.858Z,19.00
2019-03-09T13:15:37.599Z,18.85
2019-03-09T13:18:05.128Z,18.77
2019-03-09T13:20:32.802Z,18.77
2019-03-09T13:23:00.386Z,18.96
2019-03-09T13:25:28.137Z,19.15
2019-03-09T13:27:55.671Z,19.26
2019-03-09T13:30:23.420Z,19.23
2019-03-09T13:32:51.052Z,19.30
2019-03-09T13:35:18.717Z,19.55
2019-03-09T13:37:46.255Z,19.66
2019-03-09T13:40:14.274Z,19.71
2019-03-09T13:42:41.833Z,19.71
2019-03-09T13:45:10.243Z,19.57
2019-03-09T13:47:37.765Z,19.54
2019-03-09T13:50:06.216Z,19.24
2019-03-09T13:52:33.770Z,19.29
2019-03-09T13:55:01.346Z,19.41
2019-03-09T13:57:28.957Z,19.21
2019-03-09T13:59:56.543Z,19.25
2019-03-09T14:02:24.131Z,19.36
2019-03-09T14:04:51.699Z,19.23
2019-03-09T14:07:19.281Z,19.41
2019-03-09T14:09:46.880Z,19.65
2019-03-09T14:12:14.417Z,19.74
2019-03-09T14:14:41.998Z,19.48
2019-03-09T14:17:09.606Z,19.37
2019-03-09T14:19:37.154Z,19.24
2019-03-09T14:22:04.772Z,19.29
2019-03-09T14:24:32.319Z,19.23
2019-03-09T14:26:59.968Z,19.14
2019-03-09T14:29:27.542Z,19.43
2019-03-09T14:31:55.141Z,19.70
2019-03-09T14:34:22.718Z,19.76
2019-03-09T14:36:50.342Z,19.79
2019-03-09T14:39:17.867Z,19.53
2019-03-09T14:41:45.494Z,19.36
2019-03-09T14:44:13.039Z,19.39
2019-03-09T14:46:40.628Z,19.31
2019-03-09T14:49:08.241Z,19.24
2019-03-09T14:51:35.832Z,19.21
2019-03-09T14:54:03.446Z,19.02
2019-03-09T14:56:31.043Z,18.82
2019-03-09T14:58:58.688Z,18.83
2019-03-09T15:01:26.345Z,18.57
2019-03-09T15:03:53.948Z,18.27
2019-03-09T15:06:22.166Z,17.79
2019-03-09T15:08:49.839Z,17.81
2019-03-09T15:11:17.437Z,17.57
2019-03-09T15:13:44.994Z,17.73
2019-03-09T15:16:12.639Z,17.83
2019-03-09T15:18:40.267Z,17.81
2019-03-09T15:21:07.878Z,17.73
2019-03-09T15:23:35.398Z,17.70
2019-03-09T15:26:03.042Z,17.60
2019-03-09T15:28:30.561Z,17.64
2019-03-09T15:30:58.188Z,17.66
2019-03-09T15:33:25.695Z,17.56
2019-03-09T15:35:53.321Z,17.50
2019-03-09T15:38:20.884Z,17.56
2019-03-09T15:40:48.635Z,17.55
2019-03-09T15:43:16.193Z,17.45
2019-03-09T15:45:43.831Z,17.44
2019-03-09T15:48:11.342Z,17.41
2019-03-09T15:50:39.000Z,17.36
2019-03-09T15:53:06.595Z,17.42
2019-03-09T15:55:34.209Z,17.39
2019-03-09T15:58:02.961Z,17.41
2019-03-09T16:00:30.549Z,17.38
2019-03-09T16:02:58.137Z,17.24
2019-03-09T16:05:25.747Z,17.21
2019-03-09T16:07:53.280Z,17.07
2019-03-09T16:10:20.909Z,16.78
2019-03-09T16:12:48.461Z,16.67
2019-03-09T16:15:16.155Z,16.68
2019-03-09T16:17:43.730Z,16.61
2019-03-09T16:20:13.245Z,16.62
2019-03-09T16:22:40.976Z,16.58
2019-03-09T16:25:08.590Z,16.33
2019-03-09T16:27:36.165Z,16.25
2019-03-09T16:30:05.067Z,16.14
2019-03-09T16:32:32.771Z,16.12
2019-03-09T16:35:00.464Z,16.05
2019-03-09T16:37:28.130Z,15.77
2019-03-09T16:39:55.831Z,15.66
2019-03-09T16:42:23.505Z,15.54
2019-03-09T16:44:51.127Z,15.33
2019-03-09T16:47:18.720Z,15.02
2019-03-09T16:49:46.357Z,14.87
2019-03-09T16:52:13.921Z,14.79
2019-03-09T16:54:41.576Z,14.65
2019-03-09T16:57:09.210Z,14.50
2019-03-09T16:59:36.813Z,14.28
2019-03-09T17:02:04.389Z,14.06
2019-03-09T17:04:31.966Z,13.95
2019-03-09T17:06:59.578Z,13.70
2019-03-09T17:09:27.207Z,13.46
2019-03-09T17:11:54.759Z,13.23
2019-03-09T17:14:22.531Z,13.13
2019-03-09T17:16:50.101Z,13.11
2019-03-09T17:19:19.365Z,12.94
2019-03-09T17:21:46.890Z,12.79
2019-03-09T17:24:14.472Z,12.58
2019-03-09T17:26:42.069Z,12.53
2019-03-09T17:29:09.665Z,12.36
2019-03-09T17:31:37.241Z,12.17
2019-03-09T17:34:04.873Z,12.17
2019-03-09T17:36:32.449Z,11.95
2019-03-09T17:39:00.056Z,11.95
2019-03-09T17:41:27.666Z,11.85
2019-03-09T17:43:57.001Z,11.46
2019-03-09T17:46:24.552Z,11.51
2019-03-09T17:48:52.172Z,11.53
2019-03-09T17:51:19.687Z,11.58
2019-03-09T17:53:47.340Z,11.52
2019-03-09T17:56:14.910Z,11.46
2019-03-09T17:58:42.497Z,11.38
2019-03-09T18:01:10.060Z,11.33
2019-03-09T18:03:37.679Z,11.11
2019-03-09T18:06:05.283Z,11.05
2019-03-09T18:08:32.910Z,11.07
2019-03-09T18:11:02.890Z,11.04
2019-03-09T18:13:31.575Z,11.04
2019-03-09T18:15:59.279Z,11.02
2019-03-09T18:18:26.846Z,10.87
2019-03-09T18:20:54.518Z,10.81
2019-03-09T18:23:22.163Z,10.88
2019-03-09T18:25:49.790Z,10.75
2019-03-09T18:28:17.433Z,10.75
2019-03-09T18:30:45.161Z,10.74
2019-03-09T18:33:12.803Z,10.75
2019-03-09T18:35:41.840Z,10.68
2019-03-09T18:38:09.672Z,10.70
2019-03-09T18:40:38.285Z,10.67
2019-03-09T18:43:05.828Z,10.59
2019-03-09T18:45:33.484Z,10.43
2019-03-09T18:48:01.108Z,10.44
2019-03-09T18:50:28.770Z,10.44
2019-03-09T18:52:56.361Z,10.35
2019-03-09T18:55:23.990Z,10.44
2019-03-09T18:57:51.550Z,10.38
2019-03-09T19:00:19.327Z,10.39
2019-03-09T19:02:46.897Z,10.40
2019-03-09T19:05:14.605Z,10.42
2019-03-09T19:07:42.134Z,10.30
2019-03-09T19:10:10.694Z,10.25
2019-03-09T19:12:38.236Z,10.31
2019-03-09T19:15:07.462Z,10.26
2019-03-09T19:17:35.093Z,10.21
2019-03-09T19:20:02.786Z,10.06
2019-03-09T19:22:30.456Z,9.98
2019-03-09T19:24:58.137Z,10.15
2019-03-09T19:27:25.787Z,10.13
2019-03-09T19:29:53.597Z,10.19
2019-03-09T19:32:21.191Z,10.24
2019-03-09T19:34:48.772Z,10.25
2019-03-09T19:37:16.421Z,10.42
2019-03-09T19:39:44.177Z,10.36
2019-03-09T19:42:12.914Z,10.36
2019-03-09T19:44:40.484Z,10.31
2019-03-09T19:47:08.145Z,10.33
2019-03-09T19:49:35.708Z,10.40
2019-03-09T19:52:03.336Z,10.40
2019-03-09T19:54:30.898Z,10.48
2019-03-09T19:56:58.671Z,10.42
2019-03-09T19:59:26.347Z,10.40
2019-03-09T20:01:53.999Z,10.36
2019-03-09T20:04:21.670Z,10.19
2019-03-09T20:06:49.416Z,10.22
2019-03-09T20:09:17.512Z,10.26
2019-03-09T20:11:45.182Z,10.24
2019-03-09T20:14:12.938Z,10.24
2019-03-09T20:16:40.711Z,10.19
2019-03-09T20:19:08.430Z,10.18
2019-03-09T20:21:36.165Z,10.32
2019-03-09T20:24:03.776Z,10.34
2019-03-09T20:26:31.493Z,10.41
2019-03-09T20:28:59.105Z,10.42
2019-03-09T20:31:27.274Z,10.64
2019-03-09T20:33:54.953Z,10.76
2019-03-09T20:36:22.673Z,10.67
2019-03-09T20:38:50.404Z,10.70
2019-03-09T20:41:18.060Z,10.64
2019-03-09T20:43:45.718Z,10.73
2019-03-09T20:46:13.700Z,10.72
2019-03-09T20:48:41.401Z,10.77
2019-03-09T20:51:10.480Z,10.75
2019-03-09T20:53:38.225Z,10.62
2019-03-09T20:56:05.969Z,10.62
2019-03-09T20:58:33.629Z,10.72
2019-03-09T21:01:01.419Z,10.70
2019-03-09T21:03:30.086Z,10.76
2019-03-09T21:05:57.769Z,10.72
2019-03-09T21:08:25.999Z,10.63
2019-03-09T21:11:03.311Z,10.53
2019-03-09T21:13:23.266Z,10.46
2019-03-09T21:15:50.876Z,10.29
2019-03-09T21:18:18.619Z,10.25
2019-03-09T21:20:46.553Z,10.20
2019-03-09T21:23:14.095Z,10.12
2019-03-09T21:25:41.793Z,10.05
2019-03-09T21:28:09.314Z,9.95
2019-03-09T21:30:36.945Z,9.87
2019-03-09T21:33:04.490Z,9.72
2019-03-09T21:35:32.104Z,9.51
2019-03-09T21:37:59.779Z,9.46
2019-03-09T21:40:27.791Z,9.46
2019-03-09T21:42:55.502Z,9.37
2019-03-09T21:45:23.115Z,9.28
2019-03-09T21:47:50.811Z,9.12
2019-03-09T21:50:18.361Z,8.97
2019-03-09T21:52:46.041Z,8.80
2019-03-09T21:55:13.598Z,8.82
2019-03-09T21:57:41.236Z,8.78
2019-03-09T22:00:09.691Z,8.61
2019-03-09T22:02:37.713Z,8.49
2019-03-09T22:05:06.984Z,8.50
2019-03-09T22:07:34.656Z,8.36
2019-03-09T22:10:02.179Z,8.22
2019-03-09T22:12:29.927Z,8.08
2019-03-09T22:14:57.564Z,8.03
2019-03-09T22:17:25.251Z,8.04
2019-03-09T22:19:52.984Z,8.03
2019-03-09T22:22:20.672Z,8.02
2019-03-09T22:24:48.427Z,7.94
2019-03-09T22:27:16.099Z,7.90
2019-03-09T22:29:43.829Z,7.73
2019-03-09T22:32:11.403Z,7.64
2019-03-09T22:34:39.034Z,7.56
2019-03-09T22:37:06.555Z,7.58
2019-03-09T22:39:34.302Z,7.53
2019-03-09T22:42:01.879Z,7.49
2019-03-09T22:44:29.608Z,7.38
2019-03-09T22:46:57.134Z,7.40
2019-03-09T22:49:24.920Z,7.29
2019-03-09T22:51:52.452Z,7.23
2019-03-09T22:54:20.147Z,7.14
2019-03-09T22:56:47.743Z,7.15
2019-03-09T22:59:15.429Z,7.05
2019-03-09T23:01:42.992Z,6.85
2019-03-09T23:04:10.561Z,6.65
2019-03-09T23:06:38.114Z,6.60
2019-03-09T23:09:05.826Z,6.50
2019-03-09T23:11:35.231Z,6.45
2019-03-09T23:14:02.804Z,6.44
2019-03-09T23:16:30.388Z,6.44
2019-03-09T23:18:58.161Z,6.29
2019-03-09T23:21:25.850Z,6.35
2019-03-09T23:23:53.412Z,6.44
2019-03-09T23:26:21.025Z,6.43
2019-03-09T23:28:49.010Z,6.48
2019-03-09T23:31:16.736Z,6.43
2019-03-09T23:33:44.267Z,6.42
2019-03-09T23:36:11.949Z,6.40
2019-03-09T23:38:40.688Z,6.34
2019-03-09T23:41:08.317Z,6.18
2019-03-09T23:43:35.945Z,6.20
2019-03-09T23:46:03.489Z,6.21
2019-03-09T23:48:31.106Z,6.26
2019-03-09T23:50:58.770Z,6.16
2019-03-09T23:53:26.410Z,6.04
2019-03-09T23:55:54.026Z,6.03
2019-03-09T23:58:21.631Z,5.92
